sensor_id;sensor_type;location;lat;lon;timestamp;P1;durP1;ratioP1;P2;durP2;ratioP2
6442;SDS011;3254;47.372;8.512;2023-02-19T00:01:07;2.00;;;1.90;;
6442;SDS011;3254;47.372;8.512;2023-02-19T00:03:35;2.33;;;2.20;;
6442;SDS011;3254;47.372;8.512;2023-02-19T00:06:04;2.23;;;2.07;;
6442;SDS011;3254;47.372;8.512;2023-02-19T00:08:32;2.27;;;2.17;;
6442;SDS011;3254;47.372;8.512;2023-02-19T00:11:02;2.07;;;1.97;;
6442;SDS011;3254;47.372;8.512;2023-02-19T00:13:28;2.50;;;2.00;;
6442;SDS011;3254;47.372;8.512;2023-02-19T00:15:54;2.10;;;2.00;;
6442;SDS011;3254;47.372;8.512;2023-02-19T00:18:22;2.13;;;2.03;;
6442;SDS011;3254;47.372;8.512;2023-02-19T00:20:48;2.43;;;2.20;;
6442;SDS011;3254;47.372;8.512;2023-02-19T00:23:13;1.90;;;1.80;;
6442;SDS011;3254;47.372;8.512;2023-02-19T00:25:39;2.13;;;1.93;;
6442;SDS011;3254;47.372;8.512;2023-02-19T00:28:05;2.43;;;2.23;;
6442;SDS011;3254;47.372;8.512;2023-02-19T00:30:30;2.30;;;2.20;;
6442;SDS011;3254;47.372;8.512;2023-02-19T00:32:56;3.00;;;2.70;;
6442;SDS011;3254;47.372;8.512;2023-02-19T00:35:23;2.80;;;2.40;;
6442;SDS011;3254;47.372;8.512;2023-02-19T00:37:49;2.30;;;2.20;;
6442;SDS011;3254;47.372;8.512;2023-02-19T00:40:14;2.80;;;2.60;;
6442;SDS011;3254;47.372;8.512;2023-02-19T00:42:40;2.57;;;2.47;;
6442;SDS011;3254;47.372;8.512;2023-02-19T00:45:06;2.30;;;2.20;;
6442;SDS011;3254;47.372;8.512;2023-02-19T00:47:32;3.30;;;2.60;;
6442;SDS011;3254;47.372;8.512;2023-02-19T00:49:57;3.20;;;2.43;;
6442;SDS011;3254;47.372;8.512;2023-02-19T00:52:23;2.40;;;2.30;;
6442;SDS011;3254;47.372;8.512;2023-02-19T00:54:48;2.13;;;2.03;;
6442;SDS011;3254;47.372;8.512;2023-02-19T00:57:14;2.43;;;2.33;;
6442;SDS011;3254;47.372;8.512;2023-02-19T00:59:40;2.67;;;2.47;;
6442;SDS011;3254;47.372;8.512;2023-02-19T01:02:07;2.40;;;2.30;;
6442;SDS011;3254;47.372;8.512;2023-02-19T01:04:33;4.03;;;2.40;;
6442;SDS011;3254;47.372;8.512;2023-02-19T01:06:58;2.50;;;2.40;;
6442;SDS011;3254;47.372;8.512;2023-02-19T01:09:24;2.90;;;2.70;;
6442;SDS011;3254;47.372;8.512;2023-02-19T01:11:49;2.37;;;2.27;;
6442;SDS011;3254;47.372;8.512;2023-02-19T01:14:15;2.60;;;2.23;;
6442;SDS011;3254;47.372;8.512;2023-02-19T01:16:40;2.70;;;2.60;;
6442;SDS011;3254;47.372;8.512;2023-02-19T01:19:06;2.67;;;2.57;;
6442;SDS011;3254;47.372;8.512;2023-02-19T01:21:31;3.23;;;3.03;;
6442;SDS011;3254;47.372;8.512;2023-02-19T01:23:59;2.73;;;2.63;;
6442;SDS011;3254;47.372;8.512;2023-02-19T01:26:28;3.07;;;2.87;;
6442;SDS011;3254;47.372;8.512;2023-02-19T01:28:57;3.00;;;2.33;;
6442;SDS011;3254;47.372;8.512;2023-02-19T01:31:26;2.70;;;2.50;;
6442;SDS011;3254;47.372;8.512;2023-02-19T01:33:53;2.90;;;2.60;;
6442;SDS011;3254;47.372;8.512;2023-02-19T01:36:22;4.10;;;2.70;;
6442;SDS011;3254;47.372;8.512;2023-02-19T01:38:48;3.37;;;3.07;;
6442;SDS011;3254;47.372;8.512;2023-02-19T01:41:18;2.80;;;2.60;;
6442;SDS011;3254;47.372;8.512;2023-02-19T01:46:29;3.20;;;3.00;;
6442;SDS011;3254;47.372;8.512;2023-02-19T01:48:58;2.63;;;2.53;;
6442;SDS011;3254;47.372;8.512;2023-02-19T01:51:31;2.90;;;2.70;;
6442;SDS011;3254;47.372;8.512;2023-02-19T01:53:59;3.10;;;2.90;;
6442;SDS011;3254;47.372;8.512;2023-02-19T01:56:28;3.13;;;2.93;;
6442;SDS011;3254;47.372;8.512;2023-02-19T01:58:58;4.50;;;3.00;;
6442;SDS011;3254;47.372;8.512;2023-02-19T02:01:26;3.03;;;2.90;;
6442;SDS011;3254;47.372;8.512;2023-02-19T02:03:52;4.13;;;3.13;;
6442;SDS011;3254;47.372;8.512;2023-02-19T02:06:20;2.53;;;2.43;;
6442;SDS011;3254;47.372;8.512;2023-02-19T02:08:52;2.83;;;2.73;;
6442;SDS011;3254;47.372;8.512;2023-02-19T02:11:44;3.50;;;3.17;;
6442;SDS011;3254;47.372;8.512;2023-02-19T02:14:12;3.13;;;2.90;;
6442;SDS011;3254;47.372;8.512;2023-02-19T02:19:30;6.30;;;2.93;;
6442;SDS011;3254;47.372;8.512;2023-02-19T02:22:09;2.67;;;2.47;;
6442;SDS011;3254;47.372;8.512;2023-02-19T02:24:57;2.70;;;2.60;;
6442;SDS011;3254;47.372;8.512;2023-02-19T02:30:31;3.50;;;3.20;;
6442;SDS011;3254;47.372;8.512;2023-02-19T02:36:04;3.40;;;3.10;;
6442;SDS011;3254;47.372;8.512;2023-02-19T02:38:40;3.30;;;3.10;;
6442;SDS011;3254;47.372;8.512;2023-02-19T02:41:08;3.73;;;2.90;;
6442;SDS011;3254;47.372;8.512;2023-02-19T02:43:34;9.37;;;3.40;;
6442;SDS011;3254;47.372;8.512;2023-02-19T02:45:59;2.80;;;2.70;;
6442;SDS011;3254;47.372;8.512;2023-02-19T02:50:55;3.03;;;2.93;;
6442;SDS011;3254;47.372;8.512;2023-02-19T02:53:48;2.87;;;2.63;;
6442;SDS011;3254;47.372;8.512;2023-02-19T02:56:48;2.67;;;2.57;;
6442;SDS011;3254;47.372;8.512;2023-02-19T02:59:20;2.90;;;2.80;;
6442;SDS011;3254;47.372;8.512;2023-02-19T03:01:56;2.43;;;2.33;;
6442;SDS011;3254;47.372;8.512;2023-02-19T03:04:51;3.00;;;2.80;;
6442;SDS011;3254;47.372;8.512;2023-02-19T03:07:43;3.20;;;3.00;;
6442;SDS011;3254;47.372;8.512;2023-02-19T03:10:18;4.50;;;3.27;;
6442;SDS011;3254;47.372;8.512;2023-02-19T03:12:46;3.00;;;2.80;;
6442;SDS011;3254;47.372;8.512;2023-02-19T03:15:56;2.80;;;2.60;;
6442;SDS011;3254;47.372;8.512;2023-02-19T03:18:46;3.30;;;3.10;;
6442;SDS011;3254;47.372;8.512;2023-02-19T03:21:34;3.33;;;3.13;;
6442;SDS011;3254;47.372;8.512;2023-02-19T03:24:02;3.33;;;3.13;;
6442;SDS011;3254;47.372;8.512;2023-02-19T03:26:48;3.97;;;3.60;;
6442;SDS011;3254;47.372;8.512;2023-02-19T03:29:17;3.40;;;3.07;;
6442;SDS011;3254;47.372;8.512;2023-02-19T03:31:50;3.13;;;2.83;;
6442;SDS011;3254;47.372;8.512;2023-02-19T03:34:23;3.20;;;2.97;;
6442;SDS011;3254;47.372;8.512;2023-02-19T03:36:55;4.63;;;3.37;;
6442;SDS011;3254;47.372;8.512;2023-02-19T03:39:26;3.03;;;2.83;;
6442;SDS011;3254;47.372;8.512;2023-02-19T03:44:36;3.20;;;3.00;;
6442;SDS011;3254;47.372;8.512;2023-02-19T03:47:12;4.67;;;4.27;;
6442;SDS011;3254;47.372;8.512;2023-02-19T03:58:13;3.83;;;3.53;;
6442;SDS011;3254;47.372;8.512;2023-02-19T04:03:45;3.30;;;3.17;;
6442;SDS011;3254;47.372;8.512;2023-02-19T04:06:18;3.80;;;3.57;;
6442;SDS011;3254;47.372;8.512;2023-02-19T04:08:51;4.13;;;3.83;;
6442;SDS011;3254;47.372;8.512;2023-02-19T04:11:20;4.30;;;3.47;;
6442;SDS011;3254;47.372;8.512;2023-02-19T04:16:27;4.60;;;4.03;;
6442;SDS011;3254;47.372;8.512;2023-02-19T04:18:54;4.00;;;3.80;;
6442;SDS011;3254;47.372;8.512;2023-02-19T04:21:24;3.93;;;3.63;;
6442;SDS011;3254;47.372;8.512;2023-02-19T04:23:53;4.13;;;3.83;;
6442;SDS011;3254;47.372;8.512;2023-02-19T04:26:21;3.47;;;3.13;;
6442;SDS011;3254;47.372;8.512;2023-02-19T04:28:47;3.90;;;3.60;;
6442;SDS011;3254;47.372;8.512;2023-02-19T04:31:12;3.57;;;3.37;;
6442;SDS011;3254;47.372;8.512;2023-02-19T04:33:38;3.97;;;3.77;;
6442;SDS011;3254;47.372;8.512;2023-02-19T04:36:05;4.33;;;3.93;;
6442;SDS011;3254;47.372;8.512;2023-02-19T04:38:32;4.87;;;4.27;;
6442;SDS011;3254;47.372;8.512;2023-02-19T04:40:57;4.13;;;3.60;;
6442;SDS011;3254;47.372;8.512;2023-02-19T04:43:23;3.97;;;3.67;;
6442;SDS011;3254;47.372;8.512;2023-02-19T04:45:48;3.80;;;3.50;;
6442;SDS011;3254;47.372;8.512;2023-02-19T04:48:14;4.20;;;3.77;;
6442;SDS011;3254;47.372;8.512;2023-02-19T04:50:39;4.33;;;4.03;;
6442;SDS011;3254;47.372;8.512;2023-02-19T04:53:05;4.50;;;4.20;;
6442;SDS011;3254;47.372;8.512;2023-02-19T04:55:35;4.33;;;3.93;;
6442;SDS011;3254;47.372;8.512;2023-02-19T04:58:01;3.60;;;3.30;;
6442;SDS011;3254;47.372;8.512;2023-02-19T05:00:27;5.10;;;4.10;;
6442;SDS011;3254;47.372;8.512;2023-02-19T05:02:55;4.30;;;4.00;;
6442;SDS011;3254;47.372;8.512;2023-02-19T05:05:21;4.80;;;4.27;;
6442;SDS011;3254;47.372;8.512;2023-02-19T05:07:47;4.50;;;3.97;;
6442;SDS011;3254;47.372;8.512;2023-02-19T05:10:14;4.43;;;4.03;;
6442;SDS011;3254;47.372;8.512;2023-02-19T05:12:39;4.47;;;4.13;;
6442;SDS011;3254;47.372;8.512;2023-02-19T05:15:05;4.00;;;3.70;;
6442;SDS011;3254;47.372;8.512;2023-02-19T05:17:32;4.03;;;3.73;;
6442;SDS011;3254;47.372;8.512;2023-02-19T05:19:58;5.90;;;4.33;;
6442;SDS011;3254;47.372;8.512;2023-02-19T05:22:24;4.10;;;3.83;;
6442;SDS011;3254;47.372;8.512;2023-02-19T05:24:49;3.93;;;3.73;;
6442;SDS011;3254;47.372;8.512;2023-02-19T05:27:15;4.87;;;4.57;;
6442;SDS011;3254;47.372;8.512;2023-02-19T05:29:41;3.83;;;3.63;;
6442;SDS011;3254;47.372;8.512;2023-02-19T05:32:06;4.30;;;3.90;;
6442;SDS011;3254;47.372;8.512;2023-02-19T05:34:32;4.10;;;3.80;;
6442;SDS011;3254;47.372;8.512;2023-02-19T05:36:57;4.20;;;3.90;;
6442;SDS011;3254;47.372;8.512;2023-02-19T05:39:23;4.10;;;3.80;;
6442;SDS011;3254;47.372;8.512;2023-02-19T05:41:48;4.90;;;4.60;;
6442;SDS011;3254;47.372;8.512;2023-02-19T05:44:14;4.03;;;3.83;;
6442;SDS011;3254;47.372;8.512;2023-02-19T05:46:40;4.10;;;3.90;;
6442;SDS011;3254;47.372;8.512;2023-02-19T05:49:05;5.77;;;4.30;;
6442;SDS011;3254;47.372;8.512;2023-02-19T05:51:31;5.30;;;3.33;;
6442;SDS011;3254;47.372;8.512;2023-02-19T05:53:56;4.00;;;3.80;;
6442;SDS011;3254;47.372;8.512;2023-02-19T05:56:32;5.00;;;4.47;;
6442;SDS011;3254;47.372;8.512;2023-02-19T05:59:06;4.33;;;4.03;;
6442;SDS011;3254;47.372;8.512;2023-02-19T06:01:38;3.90;;;3.70;;
6442;SDS011;3254;47.372;8.512;2023-02-19T06:04:04;4.00;;;3.80;;
6442;SDS011;3254;47.372;8.512;2023-02-19T06:06:31;4.57;;;4.17;;
6442;SDS011;3254;47.372;8.512;2023-02-19T06:08:56;3.90;;;3.60;;
6442;SDS011;3254;47.372;8.512;2023-02-19T06:11:22;4.30;;;4.10;;
6442;SDS011;3254;47.372;8.512;2023-02-19T06:13:50;4.20;;;3.80;;
6442;SDS011;3254;47.372;8.512;2023-02-19T06:16:15;3.90;;;3.80;;
6442;SDS011;3254;47.372;8.512;2023-02-19T06:18:42;4.30;;;4.00;;
6442;SDS011;3254;47.372;8.512;2023-02-19T06:21:10;4.00;;;3.70;;
6442;SDS011;3254;47.372;8.512;2023-02-19T06:23:37;3.80;;;3.53;;
6442;SDS011;3254;47.372;8.512;2023-02-19T06:26:06;3.90;;;3.70;;
6442;SDS011;3254;47.372;8.512;2023-02-19T06:28:39;4.67;;;3.83;;
6442;SDS011;3254;47.372;8.512;2023-02-19T06:31:07;4.20;;;4.00;;
6442;SDS011;3254;47.372;8.512;2023-02-19T06:33:33;4.70;;;4.40;;
6442;SDS011;3254;47.372;8.512;2023-02-19T06:36:01;4.00;;;3.70;;
6442;SDS011;3254;47.372;8.512;2023-02-19T06:38:28;3.73;;;3.40;;
6442;SDS011;3254;47.372;8.512;2023-02-19T06:40:54;4.17;;;3.83;;
6442;SDS011;3254;47.372;8.512;2023-02-19T06:43:24;3.70;;;3.50;;
6442;SDS011;3254;47.372;8.512;2023-02-19T06:45:50;4.20;;;3.87;;
6442;SDS011;3254;47.372;8.512;2023-02-19T06:48:16;3.33;;;3.13;;
6442;SDS011;3254;47.372;8.512;2023-02-19T06:50:42;4.70;;;4.30;;
6442;SDS011;3254;47.372;8.512;2023-02-19T06:53:08;3.40;;;3.20;;
6442;SDS011;3254;47.372;8.512;2023-02-19T06:55:35;4.47;;;4.17;;
6442;SDS011;3254;47.372;8.512;2023-02-19T06:58:02;5.77;;;4.67;;
6442;SDS011;3254;47.372;8.512;2023-02-19T07:00:28;4.00;;;3.70;;
6442;SDS011;3254;47.372;8.512;2023-02-19T07:02:53;4.00;;;3.70;;
6442;SDS011;3254;47.372;8.512;2023-02-19T07:05:21;3.73;;;3.50;;
6442;SDS011;3254;47.372;8.512;2023-02-19T07:07:47;3.70;;;3.50;;
6442;SDS011;3254;47.372;8.512;2023-02-19T07:10:15;4.13;;;3.93;;
6442;SDS011;3254;47.372;8.512;2023-02-19T07:12:42;3.90;;;3.70;;
6442;SDS011;3254;47.372;8.512;2023-02-19T07:15:07;4.33;;;3.93;;
6442;SDS011;3254;47.372;8.512;2023-02-19T07:17:34;3.90;;;3.60;;
6442;SDS011;3254;47.372;8.512;2023-02-19T07:19:59;3.63;;;3.43;;
6442;SDS011;3254;47.372;8.512;2023-02-19T07:22:25;5.53;;;3.53;;
6442;SDS011;3254;47.372;8.512;2023-02-19T07:24:51;4.13;;;3.83;;
6442;SDS011;3254;47.372;8.512;2023-02-19T07:27:16;3.70;;;3.50;;
6442;SDS011;3254;47.372;8.512;2023-02-19T07:29:46;6.90;;;4.33;;
6442;SDS011;3254;47.372;8.512;2023-02-19T07:32:12;3.47;;;3.27;;
6442;SDS011;3254;47.372;8.512;2023-02-19T07:34:41;3.67;;;2.83;;
6442;SDS011;3254;47.372;8.512;2023-02-19T07:37:07;3.50;;;3.30;;
6442;SDS011;3254;47.372;8.512;2023-02-19T07:39:32;3.40;;;3.00;;
6442;SDS011;3254;47.372;8.512;2023-02-19T07:42:00;5.10;;;3.20;;
6442;SDS011;3254;47.372;8.512;2023-02-19T07:44:27;3.50;;;3.20;;
6442;SDS011;3254;47.372;8.512;2023-02-19T07:46:53;3.50;;;2.73;;
6442;SDS011;3254;47.372;8.512;2023-02-19T07:49:18;3.00;;;2.90;;
6442;SDS011;3254;47.372;8.512;2023-02-19T07:51:44;3.67;;;3.30;;
6442;SDS011;3254;47.372;8.512;2023-02-19T07:54:10;3.73;;;3.53;;
6442;SDS011;3254;47.372;8.512;2023-02-19T07:56:35;3.40;;;3.20;;
6442;SDS011;3254;47.372;8.512;2023-02-19T07:59:01;3.17;;;2.97;;
6442;SDS011;3254;47.372;8.512;2023-02-19T08:01:26;2.90;;;2.80;;
6442;SDS011;3254;47.372;8.512;2023-02-19T08:04:11;3.43;;;2.93;;
6442;SDS011;3254;47.372;8.512;2023-02-19T08:06:38;3.07;;;2.90;;
6442;SDS011;3254;47.372;8.512;2023-02-19T08:09:04;3.10;;;2.73;;
6442;SDS011;3254;47.372;8.512;2023-02-19T08:11:32;3.17;;;2.97;;
6442;SDS011;3254;47.372;8.512;2023-02-19T08:14:16;2.73;;;2.63;;
6442;SDS011;3254;47.372;8.512;2023-02-19T08:16:49;2.70;;;2.50;;
6442;SDS011;3254;47.372;8.512;2023-02-19T08:19:15;2.57;;;2.47;;
6442;SDS011;3254;47.372;8.512;2023-02-19T08:21:41;2.70;;;2.50;;
6442;SDS011;3254;47.372;8.512;2023-02-19T08:24:07;2.90;;;2.80;;
6442;SDS011;3254;47.372;8.512;2023-02-19T08:26:32;2.30;;;2.20;;
6442;SDS011;3254;47.372;8.512;2023-02-19T08:29:00;2.23;;;2.13;;
6442;SDS011;3254;47.372;8.512;2023-02-19T08:31:26;2.77;;;2.50;;
6442;SDS011;3254;47.372;8.512;2023-02-19T08:33:51;2.53;;;2.33;;
6442;SDS011;3254;47.372;8.512;2023-02-19T08:36:17;1.90;;;1.80;;
6442;SDS011;3254;47.372;8.512;2023-02-19T08:38:43;3.50;;;1.90;;
6442;SDS011;3254;47.372;8.512;2023-02-19T08:41:19;3.33;;;2.47;;
6442;SDS011;3254;47.372;8.512;2023-02-19T08:43:45;2.50;;;2.33;;
6442;SDS011;3254;47.372;8.512;2023-02-19T08:46:10;2.90;;;1.90;;
6442;SDS011;3254;47.372;8.512;2023-02-19T08:48:37;3.47;;;1.83;;
6442;SDS011;3254;47.372;8.512;2023-02-19T08:51:04;2.33;;;2.13;;
6442;SDS011;3254;47.372;8.512;2023-02-19T08:53:51;2.13;;;2.03;;
6442;SDS011;3254;47.372;8.512;2023-02-19T08:56:18;2.17;;;2.07;;
6442;SDS011;3254;47.372;8.512;2023-02-19T08:58:45;1.90;;;1.80;;
6442;SDS011;3254;47.372;8.512;2023-02-19T09:01:12;2.23;;;2.13;;
6442;SDS011;3254;47.372;8.512;2023-02-19T09:03:39;2.13;;;2.03;;
6442;SDS011;3254;47.372;8.512;2023-02-19T09:06:11;2.97;;;1.97;;
6442;SDS011;3254;47.372;8.512;2023-02-19T09:08:39;2.80;;;2.60;;
6442;SDS011;3254;47.372;8.512;2023-02-19T09:11:05;2.40;;;2.30;;
6442;SDS011;3254;47.372;8.512;2023-02-19T09:13:31;2.40;;;2.30;;
6442;SDS011;3254;47.372;8.512;2023-02-19T09:15:57;2.40;;;2.30;;
6442;SDS011;3254;47.372;8.512;2023-02-19T09:18:24;2.13;;;1.63;;
6442;SDS011;3254;47.372;8.512;2023-02-19T09:20:50;4.50;;;2.40;;
6442;SDS011;3254;47.372;8.512;2023-02-19T09:23:15;2.10;;;2.00;;
6442;SDS011;3254;47.372;8.512;2023-02-19T09:25:41;2.13;;;2.03;;
6442;SDS011;3254;47.372;8.512;2023-02-19T09:28:08;3.87;;;1.90;;
6442;SDS011;3254;47.372;8.512;2023-02-19T09:30:34;1.90;;;1.80;;
6442;SDS011;3254;47.372;8.512;2023-02-19T09:33:03;2.20;;;2.10;;
6442;SDS011;3254;47.372;8.512;2023-02-19T09:35:29;2.10;;;2.00;;
6442;SDS011;3254;47.372;8.512;2023-02-19T09:37:55;5.83;;;2.00;;
6442;SDS011;3254;47.372;8.512;2023-02-19T09:40:24;2.03;;;1.93;;
6442;SDS011;3254;47.372;8.512;2023-02-19T09:42:50;2.03;;;1.70;;
6442;SDS011;3254;47.372;8.512;2023-02-19T09:45:18;2.47;;;2.37;;
6442;SDS011;3254;47.372;8.512;2023-02-19T09:47:48;2.10;;;2.00;;
6442;SDS011;3254;47.372;8.512;2023-02-19T09:50:17;3.83;;;2.50;;
6442;SDS011;3254;47.372;8.512;2023-02-19T09:52:50;2.50;;;2.40;;
6442;SDS011;3254;47.372;8.512;2023-02-19T09:55:34;3.40;;;2.40;;
6442;SDS011;3254;47.372;8.512;2023-02-19T09:58:23;2.10;;;1.90;;
6442;SDS011;3254;47.372;8.512;2023-02-19T10:00:54;1.90;;;1.80;;
6442;SDS011;3254;47.372;8.512;2023-02-19T10:03:25;2.20;;;2.10;;
6442;SDS011;3254;47.372;8.512;2023-02-19T10:06:00;2.33;;;1.90;;
6442;SDS011;3254;47.372;8.512;2023-02-19T10:08:32;3.20;;;2.33;;
6442;SDS011;3254;47.372;8.512;2023-02-19T10:11:00;3.00;;;2.80;;
6442;SDS011;3254;47.372;8.512;2023-02-19T10:13:38;2.87;;;2.67;;
6442;SDS011;3254;47.372;8.512;2023-02-19T10:16:09;3.33;;;3.07;;
6442;SDS011;3254;47.372;8.512;2023-02-19T10:18:41;3.50;;;3.27;;
6442;SDS011;3254;47.372;8.512;2023-02-19T10:21:14;3.27;;;3.10;;
6442;SDS011;3254;47.372;8.512;2023-02-19T10:23:43;3.30;;;3.10;;
6442;SDS011;3254;47.372;8.512;2023-02-19T10:26:11;2.83;;;2.73;;
6442;SDS011;3254;47.372;8.512;2023-02-19T10:28:38;9.13;;;2.87;;
6442;SDS011;3254;47.372;8.512;2023-02-19T10:31:06;3.10;;;2.90;;
6442;SDS011;3254;47.372;8.512;2023-02-19T10:33:49;3.33;;;3.03;;
6442;SDS011;3254;47.372;8.512;2023-02-19T10:42:21;1.83;;;1.73;;
6442;SDS011;3254;47.372;8.512;2023-02-19T10:44:48;1.97;;;1.87;;
6442;SDS011;3254;47.372;8.512;2023-02-19T10:47:23;1.90;;;1.80;;
6442;SDS011;3254;47.372;8.512;2023-02-19T10:49:51;3.00;;;2.80;;
6442;SDS011;3254;47.372;8.512;2023-02-19T10:52:26;2.43;;;2.00;;
6442;SDS011;3254;47.372;8.512;2023-02-19T10:54:55;1.90;;;1.80;;
6442;SDS011;3254;47.372;8.512;2023-02-19T10:57:39;1.70;;;1.60;;
6442;SDS011;3254;47.372;8.512;2023-02-19T11:00:24;1.70;;;1.60;;
6442;SDS011;3254;47.372;8.512;2023-02-19T11:03:11;1.93;;;1.83;;
6442;SDS011;3254;47.372;8.512;2023-02-19T11:05:59;1.50;;;1.40;;
6442;SDS011;3254;47.372;8.512;2023-02-19T11:08:27;0.80;;;0.80;;
6442;SDS011;3254;47.372;8.512;2023-02-19T11:10:53;1.37;;;1.27;;
6442;SDS011;3254;47.372;8.512;2023-02-19T11:13:27;0.90;;;0.90;;
6442;SDS011;3254;47.372;8.512;2023-02-19T11:15:57;1.13;;;1.03;;
6442;SDS011;3254;47.372;8.512;2023-02-19T11:18:30;0.90;;;0.87;;
6442;SDS011;3254;47.372;8.512;2023-02-19T11:21:00;0.83;;;0.77;;
6442;SDS011;3254;47.372;8.512;2023-02-19T11:23:29;1.20;;;1.10;;
6442;SDS011;3254;47.372;8.512;2023-02-19T11:26:02;1.37;;;1.00;;
6442;SDS011;3254;47.372;8.512;2023-02-19T11:28:34;1.07;;;0.97;;
6442;SDS011;3254;47.372;8.512;2023-02-19T11:36:38;0.97;;;0.90;;
6442;SDS011;3254;47.372;8.512;2023-02-19T11:47:10;13.97;;;0.97;;
6442;SDS011;3254;47.372;8.512;2023-02-19T11:50:09;1.10;;;1.00;;
6442;SDS011;3254;47.372;8.512;2023-02-19T11:52:45;1.90;;;0.90;;
6442;SDS011;3254;47.372;8.512;2023-02-19T12:06:27;0.70;;;0.50;;
6442;SDS011;3254;47.372;8.512;2023-02-19T12:11:51;0.70;;;0.40;;
6442;SDS011;3254;47.372;8.512;2023-02-19T12:14:59;0.80;;;0.50;;
6442;SDS011;3254;47.372;8.512;2023-02-19T12:23:56;0.70;;;0.50;;
6442;SDS011;3254;47.372;8.512;2023-02-19T12:26:34;0.70;;;0.50;;
6442;SDS011;3254;47.372;8.512;2023-02-19T12:29:29;0.70;;;0.60;;
6442;SDS011;3254;47.372;8.512;2023-02-19T12:38:21;0.80;;;0.73;;
6442;SDS011;3254;47.372;8.512;2023-02-19T12:44:42;1.57;;;1.43;;
6442;SDS011;3254;47.372;8.512;2023-02-19T12:46:42;1.97;;;0.77;;
6442;SDS011;3254;47.372;8.512;2023-02-19T12:49:14;0.93;;;0.90;;
6442;SDS011;3254;47.372;8.512;2023-02-19T12:51:57;0.80;;;0.80;;
6442;SDS011;3254;47.372;8.512;2023-02-19T12:54:37;1.27;;;0.83;;
6442;SDS011;3254;47.372;8.512;2023-02-19T12:57:12;0.83;;;0.70;;
6442;SDS011;3254;47.372;8.512;2023-02-19T12:59:45;1.17;;;0.87;;
6442;SDS011;3254;47.372;8.512;2023-02-19T13:02:29;1.07;;;0.93;;
6442;SDS011;3254;47.372;8.512;2023-02-19T13:05:05;0.80;;;0.80;;
6442;SDS011;3254;47.372;8.512;2023-02-19T13:10:43;1.27;;;1.13;;
6442;SDS011;3254;47.372;8.512;2023-02-19T13:13:29;1.10;;;1.00;;
6442;SDS011;3254;47.372;8.512;2023-02-19T13:16:01;1.10;;;1.00;;
6442;SDS011;3254;47.372;8.512;2023-02-19T13:18:35;0.73;;;0.70;;
6442;SDS011;3254;47.372;8.512;2023-02-19T13:21:07;1.10;;;0.90;;
6442;SDS011;3254;47.372;8.512;2023-02-19T13:23:38;4.00;;;0.80;;
6442;SDS011;3254;47.372;8.512;2023-02-19T13:38:06;1.93;;;0.67;;
6442;SDS011;3254;47.372;8.512;2023-02-19T13:40:36;1.43;;;0.97;;
6442;SDS011;3254;47.372;8.512;2023-02-19T13:43:07;0.80;;;0.77;;
6442;SDS011;3254;47.372;8.512;2023-02-19T13:45:52;1.13;;;0.70;;
6442;SDS011;3254;47.372;8.512;2023-02-19T13:56:34;1.00;;;0.90;;
6442;SDS011;3254;47.372;8.512;2023-02-19T14:04:17;0.80;;;0.70;;
6442;SDS011;3254;47.372;8.512;2023-02-19T14:14:52;1.10;;;1.00;;
6442;SDS011;3254;47.372;8.512;2023-02-19T14:20:38;1.40;;;1.30;;
6442;SDS011;3254;47.372;8.512;2023-02-19T14:23:12;1.10;;;1.00;;
6442;SDS011;3254;47.372;8.512;2023-02-19T14:25:51;1.30;;;1.20;;
6442;SDS011;3254;47.372;8.512;2023-02-19T14:28:39;1.23;;;1.13;;
6442;SDS011;3254;47.372;8.512;2023-02-19T14:31:09;1.40;;;1.00;;
6442;SDS011;3254;47.372;8.512;2023-02-19T14:33:48;2.50;;;1.20;;
6442;SDS011;3254;47.372;8.512;2023-02-19T14:36:22;0.93;;;0.93;;
6442;SDS011;3254;47.372;8.512;2023-02-19T14:38:59;3.07;;;1.17;;
6442;SDS011;3254;47.372;8.512;2023-02-19T14:41:29;1.63;;;1.10;;
6442;SDS011;3254;47.372;8.512;2023-02-19T14:43:58;1.50;;;1.07;;
6442;SDS011;3254;47.372;8.512;2023-02-19T14:46:29;1.73;;;1.03;;
6442;SDS011;3254;47.372;8.512;2023-02-19T14:49:06;1.70;;;1.10;;
6442;SDS011;3254;47.372;8.512;2023-02-19T14:51:38;0.80;;;0.80;;
6442;SDS011;3254;47.372;8.512;2023-02-19T14:54:11;1.00;;;0.83;;
6442;SDS011;3254;47.372;8.512;2023-02-19T14:56:44;1.50;;;1.30;;
6442;SDS011;3254;47.372;8.512;2023-02-19T14:59:25;1.70;;;1.60;;
6442;SDS011;3254;47.372;8.512;2023-02-19T15:01:52;1.33;;;1.23;;
6442;SDS011;3254;47.372;8.512;2023-02-19T15:04:27;1.50;;;1.40;;
6442;SDS011;3254;47.372;8.512;2023-02-19T15:06:59;1.17;;;1.07;;
6442;SDS011;3254;47.372;8.512;2023-02-19T15:09:31;6.93;;;1.47;;
6442;SDS011;3254;47.372;8.512;2023-02-19T15:11:59;1.43;;;1.33;;
6442;SDS011;3254;47.372;8.512;2023-02-19T15:14:26;1.30;;;1.00;;
6442;SDS011;3254;47.372;8.512;2023-02-19T15:16:56;1.03;;;0.90;;
6442;SDS011;3254;47.372;8.512;2023-02-19T15:19:24;1.00;;;0.90;;
6442;SDS011;3254;47.372;8.512;2023-02-19T15:21:50;2.10;;;1.10;;
6442;SDS011;3254;47.372;8.512;2023-02-19T15:24:16;2.40;;;1.37;;
6442;SDS011;3254;47.372;8.512;2023-02-19T15:26:45;1.50;;;1.00;;
6442;SDS011;3254;47.372;8.512;2023-02-19T15:29:15;1.40;;;1.30;;
6442;SDS011;3254;47.372;8.512;2023-02-19T15:31:43;2.83;;;1.30;;
6442;SDS011;3254;47.372;8.512;2023-02-19T15:34:16;1.20;;;0.93;;
6442;SDS011;3254;47.372;8.512;2023-02-19T15:36:44;2.77;;;0.97;;
6442;SDS011;3254;47.372;8.512;2023-02-19T15:39:11;0.80;;;0.80;;
6442;SDS011;3254;47.372;8.512;2023-02-19T15:41:56;2.17;;;0.90;;
6442;SDS011;3254;47.372;8.512;2023-02-19T15:44:29;2.60;;;1.17;;
6442;SDS011;3254;47.372;8.512;2023-02-19T15:46:56;1.47;;;1.07;;
6442;SDS011;3254;47.372;8.512;2023-02-19T15:49:32;1.20;;;0.87;;
6442;SDS011;3254;47.372;8.512;2023-02-19T15:52:17;1.97;;;1.27;;
6442;SDS011;3254;47.372;8.512;2023-02-19T15:54:51;0.90;;;0.90;;
6442;SDS011;3254;47.372;8.512;2023-02-19T15:57:22;1.53;;;1.43;;
6442;SDS011;3254;47.372;8.512;2023-02-19T16:00:02;1.43;;;1.07;;
6442;SDS011;3254;47.372;8.512;2023-02-19T16:02:39;1.40;;;0.83;;
6442;SDS011;3254;47.372;8.512;2023-02-19T16:05:13;1.20;;;1.07;;
6442;SDS011;3254;47.372;8.512;2023-02-19T16:07:46;1.33;;;1.23;;
6442;SDS011;3254;47.372;8.512;2023-02-19T16:10:28;1.53;;;1.17;;
6442;SDS011;3254;47.372;8.512;2023-02-19T16:12:57;1.47;;;1.30;;
6442;SDS011;3254;47.372;8.512;2023-02-19T16:15:24;1.37;;;1.27;;
6442;SDS011;3254;47.372;8.512;2023-02-19T16:17:51;1.27;;;1.20;;
6442;SDS011;3254;47.372;8.512;2023-02-19T16:20:35;1.50;;;1.30;;
6442;SDS011;3254;47.372;8.512;2023-02-19T16:23:02;2.80;;;1.33;;
6442;SDS011;3254;47.372;8.512;2023-02-19T16:28:11;1.67;;;1.50;;
6442;SDS011;3254;47.372;8.512;2023-02-19T16:30:38;1.50;;;1.40;;
6442;SDS011;3254;47.372;8.512;2023-02-19T16:35:52;4.33;;;1.67;;
6442;SDS011;3254;47.372;8.512;2023-02-19T16:38:19;2.00;;;1.83;;
6442;SDS011;3254;47.372;8.512;2023-02-19T16:43:28;3.07;;;1.63;;
6442;SDS011;3254;47.372;8.512;2023-02-19T16:46:05;1.93;;;1.60;;
6442;SDS011;3254;47.372;8.512;2023-02-19T16:48:33;2.67;;;1.47;;
6442;SDS011;3254;47.372;8.512;2023-02-19T16:50:59;2.07;;;1.30;;
6442;SDS011;3254;47.372;8.512;2023-02-19T16:53:25;1.87;;;1.50;;
6442;SDS011;3254;47.372;8.512;2023-02-19T16:55:52;1.50;;;1.40;;
6442;SDS011;3254;47.372;8.512;2023-02-19T16:58:19;1.43;;;1.33;;
6442;SDS011;3254;47.372;8.512;2023-02-19T17:00:45;1.50;;;1.40;;
6442;SDS011;3254;47.372;8.512;2023-02-19T17:03:13;1.73;;;1.60;;
6442;SDS011;3254;47.372;8.512;2023-02-19T17:05:42;1.50;;;1.40;;
6442;SDS011;3254;47.372;8.512;2023-02-19T17:08:19;2.53;;;1.80;;
6442;SDS011;3254;47.372;8.512;2023-02-19T17:10:47;2.03;;;1.60;;
6442;SDS011;3254;47.372;8.512;2023-02-19T17:13:13;1.60;;;1.50;;
6442;SDS011;3254;47.372;8.512;2023-02-19T17:15:38;2.07;;;1.67;;
6442;SDS011;3254;47.372;8.512;2023-02-19T17:18:04;1.80;;;1.70;;
6442;SDS011;3254;47.372;8.512;2023-02-19T17:20:29;2.40;;;2.20;;
6442;SDS011;3254;47.372;8.512;2023-02-19T17:22:58;2.73;;;2.07;;
6442;SDS011;3254;47.372;8.512;2023-02-19T17:25:24;1.93;;;1.80;;
6442;SDS011;3254;47.372;8.512;2023-02-19T17:27:49;2.40;;;2.10;;
6442;SDS011;3254;47.372;8.512;2023-02-19T17:30:17;1.93;;;1.83;;
6442;SDS011;3254;47.372;8.512;2023-02-19T17:32:48;6.47;;;1.80;;
6442;SDS011;3254;47.372;8.512;2023-02-19T17:35:14;2.97;;;1.60;;
6442;SDS011;3254;47.372;8.512;2023-02-19T17:37:40;1.70;;;1.60;;
6442;SDS011;3254;47.372;8.512;2023-02-19T17:40:22;2.53;;;2.30;;
6442;SDS011;3254;47.372;8.512;2023-02-19T17:42:51;2.20;;;2.00;;